sensor_id;sensor_type;location;lat;lon;timestamp;P1;durP1;ratioP1;P2;durP2;ratioP2
74908;SDS011;63468;52.058;4.824;2023-12-04T00:01:24;29.13;;;25.42;;
74908;SDS011;63468;52.058;4.824;2023-12-04T00:03:51;27.73;;;24.80;;
74908;SDS011;63468;52.058;4.824;2023-12-04T00:06:19;28.00;;;25.08;;
74908;SDS011;63468;52.058;4.824;2023-12-04T00:08:44;27.70;;;24.65;;
74908;SDS011;63468;52.058;4.824;2023-12-04T00:11:10;26.58;;;23.67;;
74908;SDS011;63468;52.058;4.824;2023-12-04T00:13:35;24.83;;;22.35;;
74908;SDS011;63468;52.058;4.824;2023-12-04T00:16:01;28.15;;;25.25;;
74908;SDS011;63468;52.058;4.824;2023-12-04T00:18:26;28.58;;;25.70;;
74908;SDS011;63468;52.058;4.824;2023-12-04T00:20:51;30.23;;;26.92;;
74908;SDS011;63468;52.058;4.824;2023-12-04T00:23:20;27.13;;;24.27;;
74908;SDS011;63468;52.058;4.824;2023-12-04T00:25:45;27.27;;;23.55;;
74908;SDS011;63468;52.058;4.824;2023-12-04T00:28:10;29.70;;;26.88;;
74908;SDS011;63468;52.058;4.824;2023-12-04T00:30:36;29.15;;;26.65;;
74908;SDS011;63468;52.058;4.824;2023-12-04T00:33:02;29.45;;;26.55;;
74908;SDS011;63468;52.058;4.824;2023-12-04T00:35:27;34.08;;;30.60;;
74908;SDS011;63468;52.058;4.824;2023-12-04T00:37:52;30.42;;;27.60;;
74908;SDS011;63468;52.058;4.824;2023-12-04T00:40:18;28.50;;;25.60;;
74908;SDS011;63468;52.058;4.824;2023-12-04T00:42:43;28.25;;;25.35;;
74908;SDS011;63468;52.058;4.824;2023-12-04T00:45:09;27.63;;;25.13;;
74908;SDS011;63468;52.058;4.824;2023-12-04T00:47:34;30.15;;;27.38;;
74908;SDS011;63468;52.058;4.824;2023-12-04T00:49:59;32.92;;;29.60;;
74908;SDS011;63468;52.058;4.824;2023-12-04T00:52:25;33.13;;;29.85;;
74908;SDS011;63468;52.058;4.824;2023-12-04T00:54:50;30.05;;;27.10;;
74908;SDS011;63468;52.058;4.824;2023-12-04T00:57:16;28.38;;;25.58;;
74908;SDS011;63468;52.058;4.824;2023-12-04T00:59:41;27.63;;;25.10;;
74908;SDS011;63468;52.058;4.824;2023-12-04T01:02:07;29.23;;;26.27;;
74908;SDS011;63468;52.058;4.824;2023-12-04T01:04:32;27.98;;;25.25;;
74908;SDS011;63468;52.058;4.824;2023-12-04T01:06:58;28.77;;;25.92;;
74908;SDS011;63468;52.058;4.824;2023-12-04T01:09:23;27.83;;;24.98;;
74908;SDS011;63468;52.058;4.824;2023-12-04T01:11:52;31.02;;;26.05;;
74908;SDS011;63468;52.058;4.824;2023-12-04T01:14:18;27.23;;;24.58;;
74908;SDS011;63468;52.058;4.824;2023-12-04T01:16:44;27.10;;;24.17;;
74908;SDS011;63468;52.058;4.824;2023-12-04T01:19:09;26.70;;;24.02;;
74908;SDS011;63468;52.058;4.824;2023-12-04T01:21:35;28.50;;;25.50;;
74908;SDS011;63468;52.058;4.824;2023-12-04T01:24:00;29.63;;;24.77;;
74908;SDS011;63468;52.058;4.824;2023-12-04T01:26:25;27.45;;;24.73;;
74908;SDS011;63468;52.058;4.824;2023-12-04T01:28:51;25.83;;;23.13;;
74908;SDS011;63468;52.058;4.824;2023-12-04T01:31:16;27.33;;;24.40;;
74908;SDS011;63468;52.058;4.824;2023-12-04T01:33:41;29.13;;;24.25;;
74908;SDS011;63468;52.058;4.824;2023-12-04T01:36:07;29.42;;;26.40;;
74908;SDS011;63468;52.058;4.824;2023-12-04T01:38:33;26.17;;;23.48;;
74908;SDS011;63468;52.058;4.824;2023-12-04T01:40:58;26.67;;;24.00;;
74908;SDS011;63468;52.058;4.824;2023-12-04T01:43:23;28.42;;;25.50;;
74908;SDS011;63468;52.058;4.824;2023-12-04T01:45:49;27.55;;;24.77;;
74908;SDS011;63468;52.058;4.824;2023-12-04T01:48:14;26.35;;;23.85;;
74908;SDS011;63468;52.058;4.824;2023-12-04T01:50:40;25.27;;;22.20;;
74908;SDS011;63468;52.058;4.824;2023-12-04T01:53:06;30.30;;;24.88;;
74908;SDS011;63468;52.058;4.824;2023-12-04T01:55:31;26.23;;;23.25;;
74908;SDS011;63468;52.058;4.824;2023-12-04T01:57:58;27.60;;;24.63;;
74908;SDS011;63468;52.058;4.824;2023-12-04T02:00:25;29.23;;;23.88;;
74908;SDS011;63468;52.058;4.824;2023-12-04T02:02:50;27.40;;;24.60;;
74908;SDS011;63468;52.058;4.824;2023-12-04T02:05:15;28.10;;;25.23;;
74908;SDS011;63468;52.058;4.824;2023-12-04T02:07:41;25.52;;;23.38;;
74908;SDS011;63468;52.058;4.824;2023-12-04T02:10:08;25.25;;;22.77;;
74908;SDS011;63468;52.058;4.824;2023-12-04T02:12:34;27.42;;;23.85;;
74908;SDS011;63468;52.058;4.824;2023-12-04T02:14:59;26.33;;;23.58;;
74908;SDS011;63468;52.058;4.824;2023-12-04T02:17:25;25.70;;;22.95;;
74908;SDS011;63468;52.058;4.824;2023-12-04T02:19:51;28.67;;;22.83;;
74908;SDS011;63468;52.058;4.824;2023-12-04T02:22:18;24.33;;;22.10;;
74908;SDS011;63468;52.058;4.824;2023-12-04T02:24:43;25.33;;;22.80;;
74908;SDS011;63468;52.058;4.824;2023-12-04T02:27:22;25.08;;;22.70;;
74908;SDS011;63468;52.058;4.824;2023-12-04T02:30:01;27.63;;;22.35;;
74908;SDS011;63468;52.058;4.824;2023-12-04T02:32:30;24.90;;;22.52;;
74908;SDS011;63468;52.058;4.824;2023-12-04T02:34:56;25.42;;;22.80;;
74908;SDS011;63468;52.058;4.824;2023-12-04T02:37:23;23.67;;;21.42;;
74908;SDS011;63468;52.058;4.824;2023-12-04T02:39:48;26.17;;;23.70;;
74908;SDS011;63468;52.058;4.824;2023-12-04T02:42:17;26.25;;;22.25;;
74908;SDS011;63468;52.058;4.824;2023-12-04T02:44:43;24.88;;;22.33;;
74908;SDS011;63468;52.058;4.824;2023-12-04T02:47:08;25.33;;;22.50;;
74908;SDS011;63468;52.058;4.824;2023-12-04T02:49:34;24.33;;;22.02;;
74908;SDS011;63468;52.058;4.824;2023-12-04T02:51:59;26.92;;;24.27;;
74908;SDS011;63468;52.058;4.824;2023-12-04T02:54:24;25.15;;;22.55;;
74908;SDS011;63468;52.058;4.824;2023-12-04T02:56:50;25.63;;;23.23;;
74908;SDS011;63468;52.058;4.824;2023-12-04T02:59:15;24.75;;;22.05;;
74908;SDS011;63468;52.058;4.824;2023-12-04T03:01:40;27.65;;;23.20;;
74908;SDS011;63468;52.058;4.824;2023-12-04T03:04:06;24.48;;;21.75;;
74908;SDS011;63468;52.058;4.824;2023-12-04T03:06:31;23.13;;;20.83;;
74908;SDS011;63468;52.058;4.824;2023-12-04T03:08:56;24.10;;;20.63;;
74908;SDS011;63468;52.058;4.824;2023-12-04T03:11:24;24.55;;;21.95;;
74908;SDS011;63468;52.058;4.824;2023-12-04T03:13:49;24.10;;;21.27;;
74908;SDS011;63468;52.058;4.824;2023-12-04T03:16:15;24.88;;;22.35;;
74908;SDS011;63468;52.058;4.824;2023-12-04T03:18:44;27.02;;;22.15;;
74908;SDS011;63468;52.058;4.824;2023-12-04T03:21:09;24.33;;;21.92;;
74908;SDS011;63468;52.058;4.824;2023-12-04T03:23:35;23.45;;;21.15;;
74908;SDS011;63468;52.058;4.824;2023-12-04T03:26:00;25.40;;;22.75;;
74908;SDS011;63468;52.058;4.824;2023-12-04T03:28:25;24.52;;;22.00;;
74908;SDS011;63468;52.058;4.824;2023-12-04T03:30:51;24.17;;;21.63;;
74908;SDS011;63468;52.058;4.824;2023-12-04T03:33:16;24.50;;;22.15;;
74908;SDS011;63468;52.058;4.824;2023-12-04T03:35:41;25.30;;;22.63;;
74908;SDS011;63468;52.058;4.824;2023-12-04T03:38:07;24.02;;;21.55;;
74908;SDS011;63468;52.058;4.824;2023-12-04T03:40:32;23.25;;;20.95;;
74908;SDS011;63468;52.058;4.824;2023-12-04T03:42:57;23.73;;;21.38;;
74908;SDS011;63468;52.058;4.824;2023-12-04T03:45:23;24.75;;;22.45;;
74908;SDS011;63468;52.058;4.824;2023-12-04T03:47:48;26.02;;;20.83;;
74908;SDS011;63468;52.058;4.824;2023-12-04T03:50:13;25.63;;;22.65;;
74908;SDS011;63468;52.058;4.824;2023-12-04T03:52:40;25.02;;;21.20;;
74908;SDS011;63468;52.058;4.824;2023-12-04T03:55:06;23.48;;;20.95;;
74908;SDS011;63468;52.058;4.824;2023-12-04T03:57:33;24.85;;;21.42;;
74908;SDS011;63468;52.058;4.824;2023-12-04T03:59:58;23.77;;;21.38;;
74908;SDS011;63468;52.058;4.824;2023-12-04T04:02:23;24.45;;;20.85;;
74908;SDS011;63468;52.058;4.824;2023-12-04T04:04:49;23.90;;;21.63;;
74908;SDS011;63468;52.058;4.824;2023-12-04T04:07:15;23.77;;;21.23;;
74908;SDS011;63468;52.058;4.824;2023-12-04T04:09:41;25.42;;;22.42;;
74908;SDS011;63468;52.058;4.824;2023-12-04T04:12:06;23.25;;;20.75;;
74908;SDS011;63468;52.058;4.824;2023-12-04T04:14:32;23.70;;;21.25;;
74908;SDS011;63468;52.058;4.824;2023-12-04T04:16:57;22.13;;;19.83;;
74908;SDS011;63468;52.058;4.824;2023-12-04T04:19:22;22.10;;;19.88;;
74908;SDS011;63468;52.058;4.824;2023-12-04T04:21:48;21.77;;;19.83;;
74908;SDS011;63468;52.058;4.824;2023-12-04T04:24:13;23.70;;;21.15;;
74908;SDS011;63468;52.058;4.824;2023-12-04T04:26:38;23.15;;;20.75;;
74908;SDS011;63468;52.058;4.824;2023-12-04T04:29:04;22.63;;;20.55;;
74908;SDS011;63468;52.058;4.824;2023-12-04T04:31:29;22.42;;;20.13;;
74908;SDS011;63468;52.058;4.824;2023-12-04T04:33:55;23.85;;;20.65;;
74908;SDS011;63468;52.058;4.824;2023-12-04T04:36:20;22.55;;;20.23;;
74908;SDS011;63468;52.058;4.824;2023-12-04T04:38:45;22.35;;;20.17;;
74908;SDS011;63468;52.058;4.824;2023-12-04T04:41:14;24.23;;;20.55;;
74908;SDS011;63468;52.058;4.824;2023-12-04T04:43:42;22.52;;;20.25;;
74908;SDS011;63468;52.058;4.824;2023-12-04T04:46:08;23.35;;;20.95;;
74908;SDS011;63468;52.058;4.824;2023-12-04T04:48:34;21.60;;;19.27;;
74908;SDS011;63468;52.058;4.824;2023-12-04T04:50:59;22.20;;;19.98;;
74908;SDS011;63468;52.058;4.824;2023-12-04T04:53:24;22.83;;;20.52;;
74908;SDS011;63468;52.058;4.824;2023-12-04T04:55:50;22.00;;;19.77;;
74908;SDS011;63468;52.058;4.824;2023-12-04T04:58:15;22.23;;;19.35;;
74908;SDS011;63468;52.058;4.824;2023-12-04T05:00:41;21.63;;;19.45;;
74908;SDS011;63468;52.058;4.824;2023-12-04T05:03:07;22.98;;;18.88;;
74908;SDS011;63468;52.058;4.824;2023-12-04T05:05:32;21.88;;;19.85;;
74908;SDS011;63468;52.058;4.824;2023-12-04T05:07:57;22.35;;;19.92;;
74908;SDS011;63468;52.058;4.824;2023-12-04T05:10:23;21.73;;;19.73;;
74908;SDS011;63468;52.058;4.824;2023-12-04T05:12:48;23.25;;;20.75;;
74908;SDS011;63468;52.058;4.824;2023-12-04T05:15:13;21.73;;;19.60;;
74908;SDS011;63468;52.058;4.824;2023-12-04T05:17:39;23.67;;;21.05;;
74908;SDS011;63468;52.058;4.824;2023-12-04T05:20:05;22.20;;;19.85;;
74908;SDS011;63468;52.058;4.824;2023-12-04T05:22:32;22.60;;;20.20;;
74908;SDS011;63468;52.058;4.824;2023-12-04T05:24:58;22.45;;;18.38;;
74908;SDS011;63468;52.058;4.824;2023-12-04T05:27:23;22.38;;;20.17;;
74908;SDS011;63468;52.058;4.824;2023-12-04T05:29:48;20.88;;;18.83;;
74908;SDS011;63468;52.058;4.824;2023-12-04T05:32:14;22.42;;;20.30;;
74908;SDS011;63468;52.058;4.824;2023-12-04T05:34:39;22.52;;;20.38;;
74908;SDS011;63468;52.058;4.824;2023-12-04T05:37:05;24.90;;;22.33;;
74908;SDS011;63468;52.058;4.824;2023-12-04T05:39:30;23.80;;;20.73;;
74908;SDS011;63468;52.058;4.824;2023-12-04T05:41:55;21.25;;;18.98;;
74908;SDS011;63468;52.058;4.824;2023-12-04T05:44:21;21.27;;;18.92;;
74908;SDS011;63468;52.058;4.824;2023-12-04T05:46:46;23.58;;;20.05;;
74908;SDS011;63468;52.058;4.824;2023-12-04T05:49:11;21.55;;;19.48;;
74908;SDS011;63468;52.058;4.824;2023-12-04T05:51:37;23.48;;;21.05;;
74908;SDS011;63468;52.058;4.824;2023-12-04T05:54:02;24.08;;;20.58;;
74908;SDS011;63468;52.058;4.824;2023-12-04T05:56:28;24.85;;;21.20;;
74908;SDS011;63468;52.058;4.824;2023-12-04T05:58:53;21.02;;;18.95;;
74908;SDS011;63468;52.058;4.824;2023-12-04T06:01:18;21.40;;;19.30;;
74908;SDS011;63468;52.058;4.824;2023-12-04T06:03:44;26.45;;;18.70;;
74908;SDS011;63468;52.058;4.824;2023-12-04T06:06:09;23.52;;;18.77;;
74908;SDS011;63468;52.058;4.824;2023-12-04T06:08:34;22.00;;;19.27;;
74908;SDS011;63468;52.058;4.824;2023-12-04T06:11:00;23.55;;;21.02;;
74908;SDS011;63468;52.058;4.824;2023-12-04T06:13:25;21.77;;;19.55;;
74908;SDS011;63468;52.058;4.824;2023-12-04T06:15:50;22.15;;;20.05;;
74908;SDS011;63468;52.058;4.824;2023-12-04T06:18:16;23.27;;;20.80;;
74908;SDS011;63468;52.058;4.824;2023-12-04T06:20:41;22.33;;;19.77;;
74908;SDS011;63468;52.058;4.824;2023-12-04T06:23:06;22.50;;;20.23;;
74908;SDS011;63468;52.058;4.824;2023-12-04T06:25:32;22.02;;;19.48;;
74908;SDS011;63468;52.058;4.824;2023-12-04T06:27:58;20.55;;;18.50;;
74908;SDS011;63468;52.058;4.824;2023-12-04T06:30:23;21.50;;;19.20;;
74908;SDS011;63468;52.058;4.824;2023-12-04T06:32:49;24.52;;;20.80;;
74908;SDS011;63468;52.058;4.824;2023-12-04T06:35:15;23.83;;;19.67;;
74908;SDS011;63468;52.058;4.824;2023-12-04T06:37:40;20.92;;;18.85;;
74908;SDS011;63468;52.058;4.824;2023-12-04T06:40:06;23.00;;;20.73;;
74908;SDS011;63468;52.058;4.824;2023-12-04T06:42:36;21.73;;;19.52;;
74908;SDS011;63468;52.058;4.824;2023-12-04T06:45:02;22.52;;;20.35;;
74908;SDS011;63468;52.058;4.824;2023-12-04T06:47:28;22.70;;;20.38;;
74908;SDS011;63468;52.058;4.824;2023-12-04T06:49:56;21.83;;;19.58;;
74908;SDS011;63468;52.058;4.824;2023-12-04T06:52:21;22.92;;;19.75;;
74908;SDS011;63468;52.058;4.824;2023-12-04T06:54:47;20.30;;;18.30;;
74908;SDS011;63468;52.058;4.824;2023-12-04T06:57:12;22.38;;;20.10;;
74908;SDS011;63468;52.058;4.824;2023-12-04T06:59:39;21.13;;;19.02;;
74908;SDS011;63468;52.058;4.824;2023-12-04T07:02:06;22.20;;;19.88;;
74908;SDS011;63468;52.058;4.824;2023-12-04T07:04:31;23.75;;;21.15;;
74908;SDS011;63468;52.058;4.824;2023-12-04T07:06:57;21.45;;;19.45;;
74908;SDS011;63468;52.058;4.824;2023-12-04T07:09:25;22.45;;;19.52;;
74908;SDS011;63468;52.058;4.824;2023-12-04T07:11:51;20.20;;;18.40;;
74908;SDS011;63468;52.058;4.824;2023-12-04T07:14:16;19.33;;;17.50;;
74908;SDS011;63468;52.058;4.824;2023-12-04T07:16:42;20.73;;;18.70;;
74908;SDS011;63468;52.058;4.824;2023-12-04T07:19:08;20.58;;;18.48;;
74908;SDS011;63468;52.058;4.824;2023-12-04T07:21:36;22.02;;;19.80;;
74908;SDS011;63468;52.058;4.824;2023-12-04T07:24:02;21.90;;;19.75;;
74908;SDS011;63468;52.058;4.824;2023-12-04T07:26:28;21.58;;;19.45;;
74908;SDS011;63468;52.058;4.824;2023-12-04T07:28:53;22.63;;;20.52;;
74908;SDS011;63468;52.058;4.824;2023-12-04T07:31:19;20.65;;;18.77;;
74908;SDS011;63468;52.058;4.824;2023-12-04T07:33:44;21.55;;;19.33;;
74908;SDS011;63468;52.058;4.824;2023-12-04T07:36:10;19.30;;;17.40;;
74908;SDS011;63468;52.058;4.824;2023-12-04T07:38:35;21.65;;;19.45;;
74908;SDS011;63468;52.058;4.824;2023-12-04T07:41:00;20.52;;;18.38;;
74908;SDS011;63468;52.058;4.824;2023-12-04T07:43:26;21.45;;;18.02;;
74908;SDS011;63468;52.058;4.824;2023-12-04T07:45:52;19.90;;;18.10;;
74908;SDS011;63468;52.058;4.824;2023-12-04T07:48:17;19.50;;;17.10;;
74908;SDS011;63468;52.058;4.824;2023-12-04T07:50:43;20.80;;;18.63;;
74908;SDS011;63468;52.058;4.824;2023-12-04T07:53:09;19.60;;;17.67;;
74908;SDS011;63468;52.058;4.824;2023-12-04T07:55:36;20.45;;;18.50;;
74908;SDS011;63468;52.058;4.824;2023-12-04T07:58:02;20.50;;;18.45;;
74908;SDS011;63468;52.058;4.824;2023-12-04T08:00:27;21.60;;;19.35;;
74908;SDS011;63468;52.058;4.824;2023-12-04T08:02:53;21.00;;;19.05;;
74908;SDS011;63468;52.058;4.824;2023-12-04T08:05:18;22.05;;;19.75;;
74908;SDS011;63468;52.058;4.824;2023-12-04T08:07:43;20.38;;;18.00;;
74908;SDS011;63468;52.058;4.824;2023-12-04T08:10:10;18.45;;;16.85;;
74908;SDS011;63468;52.058;4.824;2023-12-04T08:12:35;20.85;;;18.70;;
74908;SDS011;63468;52.058;4.824;2023-12-04T08:15:04;19.50;;;17.23;;
74908;SDS011;63468;52.058;4.824;2023-12-04T08:17:29;19.15;;;17.17;;
74908;SDS011;63468;52.058;4.824;2023-12-04T08:19:55;20.02;;;17.27;;
74908;SDS011;63468;52.058;4.824;2023-12-04T08:22:20;18.02;;;16.30;;
74908;SDS011;63468;52.058;4.824;2023-12-04T08:24:46;19.42;;;17.20;;
74908;SDS011;63468;52.058;4.824;2023-12-04T08:27:11;19.67;;;17.58;;
74908;SDS011;63468;52.058;4.824;2023-12-04T08:29:38;20.17;;;18.05;;
74908;SDS011;63468;52.058;4.824;2023-12-04T08:32:07;18.23;;;16.65;;
74908;SDS011;63468;52.058;4.824;2023-12-04T08:34:32;21.73;;;17.25;;
74908;SDS011;63468;52.058;4.824;2023-12-04T08:36:58;17.95;;;16.10;;
74908;SDS011;63468;52.058;4.824;2023-12-04T08:39:23;18.45;;;16.55;;
74908;SDS011;63468;52.058;4.824;2023-12-04T08:41:48;17.95;;;16.15;;
74908;SDS011;63468;52.058;4.824;2023-12-04T08:44:14;18.88;;;16.98;;
74908;SDS011;63468;52.058;4.824;2023-12-04T08:46:39;18.05;;;16.15;;
74908;SDS011;63468;52.058;4.824;2023-12-04T08:49:05;18.15;;;16.30;;
74908;SDS011;63468;52.058;4.824;2023-12-04T08:51:30;18.40;;;16.42;;
74908;SDS011;63468;52.058;4.824;2023-12-04T08:53:56;17.35;;;15.50;;
74908;SDS011;63468;52.058;4.824;2023-12-04T08:56:21;18.27;;;16.48;;
74908;SDS011;63468;52.058;4.824;2023-12-04T08:58:46;18.33;;;16.52;;
74908;SDS011;63468;52.058;4.824;2023-12-04T09:01:12;17.63;;;15.95;;
74908;SDS011;63468;52.058;4.824;2023-12-04T09:03:37;17.42;;;15.63;;
74908;SDS011;63468;52.058;4.824;2023-12-04T09:06:02;17.38;;;15.57;;
74908;SDS011;63468;52.058;4.824;2023-12-04T09:08:28;17.75;;;15.30;;
74908;SDS011;63468;52.058;4.824;2023-12-04T09:10:54;17.33;;;15.45;;
74908;SDS011;63468;52.058;4.824;2023-12-04T09:13:19;19.58;;;16.83;;
74908;SDS011;63468;52.058;4.824;2023-12-04T09:15:44;17.77;;;16.00;;
74908;SDS011;63468;52.058;4.824;2023-12-04T09:18:10;17.40;;;15.68;;
74908;SDS011;63468;52.058;4.824;2023-12-04T09:20:35;17.08;;;15.25;;
74908;SDS011;63468;52.058;4.824;2023-12-04T09:23:01;17.65;;;15.75;;
74908;SDS011;63468;52.058;4.824;2023-12-04T09:25:26;19.58;;;15.65;;
74908;SDS011;63468;52.058;4.824;2023-12-04T09:27:52;16.17;;;14.65;;
74908;SDS011;63468;52.058;4.824;2023-12-04T09:30:18;16.98;;;15.32;;
74908;SDS011;63468;52.058;4.824;2023-12-04T09:32:43;16.83;;;15.15;;
74908;SDS011;63468;52.058;4.824;2023-12-04T09:35:09;16.52;;;14.93;;
74908;SDS011;63468;52.058;4.824;2023-12-04T09:37:34;16.95;;;15.38;;
74908;SDS011;63468;52.058;4.824;2023-12-04T09:39:59;16.90;;;15.35;;
74908;SDS011;63468;52.058;4.824;2023-12-04T09:42:25;16.50;;;14.95;;
74908;SDS011;63468;52.058;4.824;2023-12-04T09:44:50;16.73;;;15.10;;
74908;SDS011;63468;52.058;4.824;2023-12-04T09:47:17;14.95;;;13.63;;
74908;SDS011;63468;52.058;4.824;2023-12-04T09:49:43;16.23;;;14.52;;
74908;SDS011;63468;52.058;4.824;2023-12-04T09:52:10;15.57;;;14.07;;
74908;SDS011;63468;52.058;4.824;2023-12-04T09:54:36;18.92;;;15.52;;
74908;SDS011;63468;52.058;4.824;2023-12-04T09:57:03;16.10;;;14.55;;
74908;SDS011;63468;52.058;4.824;2023-12-04T09:59:29;15.90;;;14.38;;
74908;SDS011;63468;52.058;4.824;2023-12-04T10:01:55;16.27;;;14.52;;
74908;SDS011;63468;52.058;4.824;2023-12-04T10:04:21;14.50;;;13.20;;
74908;SDS011;63468;52.058;4.824;2023-12-04T10:06:47;16.10;;;14.60;;
74908;SDS011;63468;52.058;4.824;2023-12-04T10:09:19;15.13;;;12.98;;
74908;SDS011;63468;52.058;4.824;2023-12-04T10:11:47;16.27;;;14.02;;
74908;SDS011;63468;52.058;4.824;2023-12-04T10:14:16;15.27;;;13.77;;
74908;SDS011;63468;52.058;4.824;2023-12-04T10:16:43;14.68;;;13.30;;
74908;SDS011;63468;52.058;4.824;2023-12-04T10:19:25;16.05;;;13.93;;
74908;SDS011;63468;52.058;4.824;2023-12-04T10:21:52;16.27;;;13.60;;
74908;SDS011;63468;52.058;4.824;2023-12-04T10:24:36;15.30;;;13.45;;
74908;SDS011;63468;52.058;4.824;2023-12-04T10:27:03;15.55;;;13.90;;
74908;SDS011;63468;52.058;4.824;2023-12-04T10:29:31;15.43;;;13.82;;
74908;SDS011;63468;52.058;4.824;2023-12-04T10:32:07;14.20;;;12.88;;
74908;SDS011;63468;52.058;4.824;2023-12-04T10:34:32;15.00;;;13.50;;
74908;SDS011;63468;52.058;4.824;2023-12-04T10:36:58;14.90;;;13.18;;
74908;SDS011;63468;52.058;4.824;2023-12-04T10:39:24;14.00;;;12.68;;
74908;SDS011;63468;52.058;4.824;2023-12-04T10:42:02;13.75;;;12.25;;
74908;SDS011;63468;52.058;4.824;2023-12-04T10:44:29;15.05;;;13.65;;
74908;SDS011;63468;52.058;4.824;2023-12-04T10:46:55;15.23;;;13.63;;
74908;SDS011;63468;52.058;4.824;2023-12-04T10:49:27;16.17;;;13.93;;
74908;SDS011;63468;52.058;4.824;2023-12-04T10:54:21;14.35;;;12.85;;
74908;SDS011;63468;52.058;4.824;2023-12-04T10:56:46;14.80;;;13.30;;
74908;SDS011;63468;52.058;4.824;2023-12-04T10:59:15;14.40;;;13.05;;
74908;SDS011;63468;52.058;4.824;2023-12-04T11:01:44;14.27;;;12.88;;
74908;SDS011;63468;52.058;4.824;2023-12-04T11:04:13;16.30;;;13.65;;
74908;SDS011;63468;52.058;4.824;2023-12-04T11:06:42;13.70;;;12.45;;
74908;SDS011;63468;52.058;4.824;2023-12-04T11:09:09;15.73;;;13.45;;
74908;SDS011;63468;52.058;4.824;2023-12-04T11:11:36;14.43;;;12.98;;
74908;SDS011;63468;52.058;4.824;2023-12-04T11:14:06;14.13;;;12.82;;
74908;SDS011;63468;52.058;4.824;2023-12-04T11:21:57;13.93;;;12.52;;
74908;SDS011;63468;52.058;4.824;2023-12-04T11:24:23;14.68;;;13.27;;
74908;SDS011;63468;52.058;4.824;2023-12-04T11:26:49;14.90;;;13.45;;
74908;SDS011;63468;52.058;4.824;2023-12-04T11:29:15;15.75;;;13.98;;
74908;SDS011;63468;52.058;4.824;2023-12-04T11:31:41;16.67;;;13.65;;
74908;SDS011;63468;52.058;4.824;2023-12-04T11:34:07;15.63;;;14.13;;
74908;SDS011;63468;52.058;4.824;2023-12-04T11:36:34;16.35;;;14.07;;
74908;SDS011;63468;52.058;4.824;2023-12-04T11:38:59;16.58;;;14.98;;
74908;SDS011;63468;52.058;4.824;2023-12-04T11:41:25;15.48;;;13.88;;
74908;SDS011;63468;52.058;4.824;2023-12-04T11:43:51;15.82;;;14.32;;
74908;SDS011;63468;52.058;4.824;2023-12-04T11:46:20;15.80;;;13.48;;
74908;SDS011;63468;52.058;4.824;2023-12-04T11:48:50;17.42;;;14.95;;
74908;SDS011;63468;52.058;4.824;2023-12-04T11:54:03;16.60;;;14.93;;
74908;SDS011;63468;52.058;4.824;2023-12-04T11:56:30;14.38;;;13.05;;
74908;SDS011;63468;52.058;4.824;2023-12-04T11:58:55;16.55;;;13.98;;
74908;SDS011;63468;52.058;4.824;2023-12-04T12:01:28;15.88;;;14.07;;
74908;SDS011;63468;52.058;4.824;2023-12-04T12:03:57;15.75;;;13.85;;
74908;SDS011;63468;52.058;4.824;2023-12-04T12:06:23;16.27;;;14.68;;
74908;SDS011;63468;52.058;4.824;2023-12-04T12:08:49;15.27;;;13.88;;
74908;SDS011;63468;52.058;4.824;2023-12-04T12:11:15;15.23;;;12.90;;
74908;SDS011;63468;52.058;4.824;2023-12-04T12:13:41;16.75;;;15.15;;
74908;SDS011;63468;52.058;4.824;2023-12-04T12:16:06;15.90;;;14.25;;
74908;SDS011;63468;52.058;4.824;2023-12-04T12:18:34;16.05;;;14.35;;
74908;SDS011;63468;52.058;4.824;2023-12-04T12:20:59;17.20;;;15.40;;
74908;SDS011;63468;52.058;4.824;2023-12-04T12:23:25;20.17;;;15.60;;
74908;SDS011;63468;52.058;4.824;2023-12-04T12:25:51;18.40;;;15.80;;
74908;SDS011;63468;52.058;4.824;2023-12-04T12:28:17;17.75;;;15.65;;
74908;SDS011;63468;52.058;4.824;2023-12-04T12:30:42;17.63;;;15.90;;
74908;SDS011;63468;52.058;4.824;2023-12-04T12:33:12;17.65;;;15.85;;
74908;SDS011;63468;52.058;4.824;2023-12-04T12:35:38;17.73;;;15.95;;
74908;SDS011;63468;52.058;4.824;2023-12-04T12:38:03;17.45;;;15.63;;
74908;SDS011;63468;52.058;4.824;2023-12-04T12:40:29;18.75;;;16.40;;
74908;SDS011;63468;52.058;4.824;2023-12-04T12:43:03;17.98;;;16.08;;
74908;SDS011;63468;52.058;4.824;2023-12-04T12:45:41;17.77;;;16.05;;
74908;SDS011;63468;52.058;4.824;2023-12-04T12:48:14;17.92;;;15.68;;
74908;SDS011;63468;52.058;4.824;2023-12-04T12:50:41;23.08;;;15.82;;
74908;SDS011;63468;52.058;4.824;2023-12-04T12:53:07;19.98;;;16.50;;
74908;SDS011;63468;52.058;4.824;2023-12-04T12:55:33;17.17;;;15.43;;
74908;SDS011;63468;52.058;4.824;2023-12-04T12:57:58;18.90;;;16.80;;
74908;SDS011;63468;52.058;4.824;2023-12-04T13:00:23;18.40;;;16.35;;
74908;SDS011;63468;52.058;4.824;2023-12-04T13:02:51;20.90;;;17.13;;
74908;SDS011;63468;52.058;4.824;2023-12-04T13:05:18;17.02;;;15.32;;
74908;SDS011;63468;52.058;4.824;2023-12-04T13:07:44;16.90;;;15.10;;
74908;SDS011;63468;52.058;4.824;2023-12-04T13:10:10;18.42;;;14.38;;
74908;SDS011;63468;52.058;4.824;2023-12-04T13:12:36;18.58;;;15.52;;
74908;SDS011;63468;52.058;4.824;2023-12-04T13:15:01;17.63;;;15.50;;
74908;SDS011;63468;52.058;4.824;2023-12-04T13:17:28;15.25;;;13.55;;
74908;SDS011;63468;52.058;4.824;2023-12-04T13:19:53;18.48;;;15.30;;
74908;SDS011;63468;52.058;4.824;2023-12-04T13:22:19;20.33;;;16.13;;
74908;SDS011;63468;52.058;4.824;2023-12-04T13:24:44;19.00;;;15.98;;
74908;SDS011;63468;52.058;4.824;2023-12-04T13:27:09;19.13;;;16.02;;
74908;SDS011;63468;52.058;4.824;2023-12-04T13:29:35;17.58;;;15.68;;
74908;SDS011;63468;52.058;4.824;2023-12-04T13:32:01;18.83;;;16.27;;
74908;SDS011;63468;52.058;4.824;2023-12-04T13:34:26;18.63;;;15.55;;
74908;SDS011;63468;52.058;4.824;2023-12-04T13:36:53;17.30;;;15.27;;
74908;SDS011;63468;52.058;4.824;2023-12-04T13:39:18;18.02;;;15.50;;
74908;SDS011;63468;52.058;4.824;2023-12-04T13:41:51;14.50;;;12.93;;
74908;SDS011;63468;52.058;4.824;2023-12-04T13:44:36;18.13;;;15.65;;
74908;SDS011;63468;52.058;4.824;2023-12-04T13:47:01;17.50;;;15.25;;
74908;SDS011;63468;52.058;4.824;2023-12-04T13:49:27;16.75;;;14.88;;
74908;SDS011;63468;52.058;4.824;2023-12-04T13:51:52;18.92;;;16.40;;
74908;SDS011;63468;52.058;4.824;2023-12-04T13:54:18;19.88;;;15.30;;
74908;SDS011;63468;52.058;4.824;2023-12-04T13:56:52;19.95;;;15.27;;
74908;SDS011;63468;52.058;4.824;2023-12-04T13:59:22;18.17;;;14.73;;
74908;SDS011;63468;52.058;4.824;2023-12-04T14:01:48;17.67;;;15.10;;
74908;SDS011;63468;52.058;4.824;2023-12-04T14:04:15;18.73;;;15.30;;
74908;SDS011;63468;52.058;4.824;2023-12-04T14:06:40;18.77;;;15.40;;
74908;SDS011;63468;52.058;4.824;2023-12-04T14:09:06;18.15;;;14.80;;
74908;SDS011;63468;52.058;4.824;2023-12-04T14:11:36;16.20;;;14.35;;
74908;SDS011;63468;52.058;4.824;2023-12-04T14:14:01;17.02;;;14.60;;
74908;SDS011;63468;52.058;4.824;2023-12-04T14:16:27;17.60;;;15.18;;
74908;SDS011;63468;52.058;4.824;2023-12-04T14:18:53;17.50;;;14.65;;
74908;SDS011;63468;52.058;4.824;2023-12-04T14:21:19;22.65;;;14.57;;
74908;SDS011;63468;52.058;4.824;2023-12-04T14:23:44;16.17;;;14.48;;
74908;SDS011;63468;52.058;4.824;2023-12-04T14:26:09;17.10;;;14.38;;